sensor_id;sensor_type;location;lat;lon;timestamp;temperature;humidity
296;DHT22;132;48.770;9.200;2023-01-15T00:03:51;10.20;1.00
296;DHT22;132;48.770;9.200;2023-01-15T00:06:19;10.20;1.00
296;DHT22;132;48.770;9.200;2023-01-15T00:08:45;11.10;1.00
296;DHT22;132;48.770;9.200;2023-01-15T00:11:12;11.00;1.00
296;DHT22;132;48.770;9.200;2023-01-15T00:13:39;10.80;1.00
296;DHT22;132;48.770;9.200;2023-01-15T00:16:09;10.30;1.00
296;DHT22;132;48.770;9.200;2023-01-15T00:18:36;10.30;1.00
296;DHT22;132;48.770;9.200;2023-01-15T00:21:06;11.10;1.00
296;DHT22;132;48.770;9.200;2023-01-15T00:23:33;10.30;1.00
296;DHT22;132;48.770;9.200;2023-01-15T00:26:20;11.30;1.00
296;DHT22;132;48.770;9.200;2023-01-15T00:29:06;10.50;1.00
296;DHT22;132;48.770;9.200;2023-01-15T00:31:34;10.20;1.00
296;DHT22;132;48.770;9.200;2023-01-15T00:34:01;9.50;1.00
296;DHT22;132;48.770;9.200;2023-01-15T00:36:28;10.50;1.00
296;DHT22;132;48.770;9.200;2023-01-15T00:41:22;11.00;1.00
296;DHT22;132;48.770;9.200;2023-01-15T00:43:48;10.40;1.00
296;DHT22;132;48.770;9.200;2023-01-15T00:46:15;10.40;1.00
296;DHT22;132;48.770;9.200;2023-01-15T00:48:42;10.40;1.00
296;DHT22;132;48.770;9.200;2023-01-15T00:51:08;10.40;1.00
296;DHT22;132;48.770;9.200;2023-01-15T00:53:35;10.40;1.00
296;DHT22;132;48.770;9.200;2023-01-15T00:56:02;10.60;1.00
296;DHT22;132;48.770;9.200;2023-01-15T00:58:28;10.50;1.00
296;DHT22;132;48.770;9.200;2023-01-15T01:00:56;10.60;1.00
296;DHT22;132;48.770;9.200;2023-01-15T01:03:23;10.80;1.00
296;DHT22;132;48.770;9.200;2023-01-15T01:05:50;10.50;1.00
296;DHT22;132;48.770;9.200;2023-01-15T01:08:16;10.40;1.00
296;DHT22;132;48.770;9.200;2023-01-15T01:10:43;10.20;1.00
296;DHT22;132;48.770;9.200;2023-01-15T01:15:38;10.40;1.00
296;DHT22;132;48.770;9.200;2023-01-15T01:18:05;11.10;1.00
296;DHT22;132;48.770;9.200;2023-01-15T01:20:32;10.40;1.00
296;DHT22;132;48.770;9.200;2023-01-15T01:25:26;10.30;1.00
296;DHT22;132;48.770;9.200;2023-01-15T01:27:52;11.30;1.00
296;DHT22;132;48.770;9.200;2023-01-15T01:30:20;11.30;1.00
296;DHT22;132;48.770;9.200;2023-01-15T01:32:46;10.60;1.00
296;DHT22;132;48.770;9.200;2023-01-15T01:35:13;10.60;1.00
296;DHT22;132;48.770;9.200;2023-01-15T01:37:39;10.60;1.00
296;DHT22;132;48.770;9.200;2023-01-15T01:40:06;9.90;1.00
296;DHT22;132;48.770;9.200;2023-01-15T01:42:33;10.50;1.00
296;DHT22;132;48.770;9.200;2023-01-15T01:45:26;10.60;1.00
296;DHT22;132;48.770;9.200;2023-01-15T01:47:57;10.70;1.00
296;DHT22;132;48.770;9.200;2023-01-15T01:50:27;10.90;1.00
296;DHT22;132;48.770;9.200;2023-01-15T01:53:09;10.80;1.00
296;DHT22;132;48.770;9.200;2023-01-15T01:55:36;10.50;1.00
296;DHT22;132;48.770;9.200;2023-01-15T01:58:06;10.50;1.00
296;DHT22;132;48.770;9.200;2023-01-15T02:03:02;11.20;1.00
296;DHT22;132;48.770;9.200;2023-01-15T02:05:33;10.50;1.00
296;DHT22;132;48.770;9.200;2023-01-15T02:08:01;11.40;1.00
296;DHT22;132;48.770;9.200;2023-01-15T02:10:28;10.60;1.00
296;DHT22;132;48.770;9.200;2023-01-15T02:18:27;10.60;1.00
296;DHT22;132;48.770;9.200;2023-01-15T02:21:04;11.50;1.00
296;DHT22;132;48.770;9.200;2023-01-15T02:23:49;11.60;1.00
296;DHT22;132;48.770;9.200;2023-01-15T02:28:59;10.70;1.00
296;DHT22;132;48.770;9.200;2023-01-15T02:31:37;10.50;1.00
296;DHT22;132;48.770;9.200;2023-01-15T02:34:21;10.80;1.00
296;DHT22;132;48.770;9.200;2023-01-15T02:36:54;10.70;1.00
296;DHT22;132;48.770;9.200;2023-01-15T02:39:27;11.00;1.00
296;DHT22;132;48.770;9.200;2023-01-15T02:41:59;10.70;1.00
296;DHT22;132;48.770;9.200;2023-01-15T02:44:36;11.40;1.00
296;DHT22;132;48.770;9.200;2023-01-15T02:47:05;10.70;1.00
296;DHT22;132;48.770;9.200;2023-01-15T02:49:33;10.70;1.00
296;DHT22;132;48.770;9.200;2023-01-15T02:52:28;10.80;1.00
296;DHT22;132;48.770;9.200;2023-01-15T02:55:02;10.70;1.00
296;DHT22;132;48.770;9.200;2023-01-15T02:57:34;10.80;1.00
296;DHT22;132;48.770;9.200;2023-01-15T03:02:37;10.90;1.00
296;DHT22;132;48.770;9.200;2023-01-15T03:07:57;10.80;1.00
296;DHT22;132;48.770;9.200;2023-01-15T03:10:41;10.80;1.00
296;DHT22;132;48.770;9.200;2023-01-15T03:13:14;10.80;1.00
296;DHT22;132;48.770;9.200;2023-01-15T03:16:03;10.90;1.00
296;DHT22;132;48.770;9.200;2023-01-15T03:18:59;10.80;1.00
296;DHT22;132;48.770;9.200;2023-01-15T03:21:39;10.80;1.00
296;DHT22;132;48.770;9.200;2023-01-15T03:24:10;10.80;1.00
296;DHT22;132;48.770;9.200;2023-01-15T03:26:38;11.10;1.00
296;DHT22;132;48.770;9.200;2023-01-15T03:29:05;10.90;1.00
296;DHT22;132;48.770;9.200;2023-01-15T03:34:01;10.30;1.00
296;DHT22;132;48.770;9.200;2023-01-15T03:36:29;10.90;1.00
296;DHT22;132;48.770;9.200;2023-01-15T03:42:14;10.80;1.00
296;DHT22;132;48.770;9.200;2023-01-15T03:45:19;11.10;1.00
296;DHT22;132;48.770;9.200;2023-01-15T03:48:04;11.20;1.00
296;DHT22;132;48.770;9.200;2023-01-15T03:58:50;11.40;1.00
296;DHT22;132;48.770;9.200;2023-01-15T04:01:29;11.40;1.00
296;DHT22;132;48.770;9.200;2023-01-15T04:03:58;11.50;1.00
296;DHT22;132;48.770;9.200;2023-01-15T04:08:58;11.60;1.00
296;DHT22;132;48.770;9.200;2023-01-15T04:11:27;11.60;1.00
296;DHT22;132;48.770;9.200;2023-01-15T04:14:03;11.70;1.00
296;DHT22;132;48.770;9.200;2023-01-15T04:16:42;11.70;1.00
296;DHT22;132;48.770;9.200;2023-01-15T04:19:10;12.30;1.00
296;DHT22;132;48.770;9.200;2023-01-15T04:26:36;11.70;1.00
296;DHT22;132;48.770;9.200;2023-01-15T04:29:02;11.70;1.00
296;DHT22;132;48.770;9.200;2023-01-15T04:31:31;11.60;1.00
296;DHT22;132;48.770;9.200;2023-01-15T04:33:59;11.60;1.00
296;DHT22;132;48.770;9.200;2023-01-15T04:36:26;11.60;1.00
296;DHT22;132;48.770;9.200;2023-01-15T04:38:52;11.60;1.00
296;DHT22;132;48.770;9.200;2023-01-15T04:41:19;11.60;1.00
296;DHT22;132;48.770;9.200;2023-01-15T04:44:04;11.60;1.00
296;DHT22;132;48.770;9.200;2023-01-15T04:46:42;11.90;1.00
296;DHT22;132;48.770;9.200;2023-01-15T04:49:11;11.60;1.00
296;DHT22;132;48.770;9.200;2023-01-15T04:51:39;12.20;1.00
296;DHT22;132;48.770;9.200;2023-01-15T04:54:06;11.60;1.00
296;DHT22;132;48.770;9.200;2023-01-15T04:56:40;12.20;1.00
296;DHT22;132;48.770;9.200;2023-01-15T04:59:07;12.20;1.00
296;DHT22;132;48.770;9.200;2023-01-15T05:01:34;11.60;1.00
296;DHT22;132;48.770;9.200;2023-01-15T05:04:01;11.60;1.00
296;DHT22;132;48.770;9.200;2023-01-15T05:06:29;11.50;1.00
296;DHT22;132;48.770;9.200;2023-01-15T05:08:57;11.60;1.00
296;DHT22;132;48.770;9.200;2023-01-15T05:11:24;12.10;1.00
296;DHT22;132;48.770;9.200;2023-01-15T05:16:25;11.40;1.00
296;DHT22;132;48.770;9.200;2023-01-15T05:18:53;11.60;1.00
296;DHT22;132;48.770;9.200;2023-01-15T05:21:23;12.10;1.00
296;DHT22;132;48.770;9.200;2023-01-15T05:23:52;11.70;1.00
296;DHT22;132;48.770;9.200;2023-01-15T05:28:46;11.80;1.00
296;DHT22;132;48.770;9.200;2023-01-15T05:31:14;11.40;1.00
296;DHT22;132;48.770;9.200;2023-01-15T05:33:44;11.00;1.00
296;DHT22;132;48.770;9.200;2023-01-15T05:36:14;10.90;1.00
296;DHT22;132;48.770;9.200;2023-01-15T05:38:40;10.30;1.00
296;DHT22;132;48.770;9.200;2023-01-15T05:41:10;11.60;1.00
296;DHT22;132;48.770;9.200;2023-01-15T05:44:00;9.20;1.00
296;DHT22;132;48.770;9.200;2023-01-15T05:46:26;9.20;1.00
296;DHT22;132;48.770;9.200;2023-01-15T05:48:53;9.00;1.00
296;DHT22;132;48.770;9.200;2023-01-15T05:51:20;8.80;1.00
296;DHT22;132;48.770;9.200;2023-01-15T05:56:13;8.60;1.00
296;DHT22;132;48.770;9.200;2023-01-15T05:58:40;8.50;1.00
296;DHT22;132;48.770;9.200;2023-01-15T06:01:09;8.50;1.00
296;DHT22;132;48.770;9.200;2023-01-15T06:03:36;8.40;1.00
296;DHT22;132;48.770;9.200;2023-01-15T06:08:30;8.30;1.00
296;DHT22;132;48.770;9.200;2023-01-15T06:10:57;8.30;1.00
296;DHT22;132;48.770;9.200;2023-01-15T06:13:23;8.20;1.00
296;DHT22;132;48.770;9.200;2023-01-15T06:15:50;8.10;1.00
296;DHT22;132;48.770;9.200;2023-01-15T06:18:16;8.30;1.00
296;DHT22;132;48.770;9.200;2023-01-15T06:23:09;9.20;1.00
296;DHT22;132;48.770;9.200;2023-01-15T06:25:36;8.10;1.00
296;DHT22;132;48.770;9.200;2023-01-15T06:28:06;8.10;1.00
296;DHT22;132;48.770;9.200;2023-01-15T06:30:33;8.00;1.00
296;DHT22;132;48.770;9.200;2023-01-15T06:33:00;8.00;1.00
296;DHT22;132;48.770;9.200;2023-01-15T06:37:54;8.70;1.00
296;DHT22;132;48.770;9.200;2023-01-15T06:45:39;7.80;1.00
296;DHT22;132;48.770;9.200;2023-01-15T06:50:52;7.70;1.00
296;DHT22;132;48.770;9.200;2023-01-15T06:53:19;7.60;1.00
296;DHT22;132;48.770;9.200;2023-01-15T06:55:47;7.60;1.00
296;DHT22;132;48.770;9.200;2023-01-15T06:58:13;7.60;1.00
296;DHT22;132;48.770;9.200;2023-01-15T07:00:40;8.80;1.00
296;DHT22;132;48.770;9.200;2023-01-15T07:03:10;7.50;1.00
296;DHT22;132;48.770;9.200;2023-01-15T07:05:40;7.40;1.00
296;DHT22;132;48.770;9.200;2023-01-15T07:08:06;7.20;1.00
296;DHT22;132;48.770;9.200;2023-01-15T07:13:00;7.30;1.00
296;DHT22;132;48.770;9.200;2023-01-15T07:15:27;7.10;1.00
296;DHT22;132;48.770;9.200;2023-01-15T07:17:54;7.20;1.00
296;DHT22;132;48.770;9.200;2023-01-15T07:20:21;7.10;1.00
296;DHT22;132;48.770;9.200;2023-01-15T07:22:49;6.80;1.00
296;DHT22;132;48.770;9.200;2023-01-15T07:25:20;7.00;1.00
296;DHT22;132;48.770;9.200;2023-01-15T07:27:46;6.80;1.00
296;DHT22;132;48.770;9.200;2023-01-15T07:30:15;6.70;1.00
296;DHT22;132;48.770;9.200;2023-01-15T07:35:09;6.70;1.00
296;DHT22;132;48.770;9.200;2023-01-15T07:37:35;6.50;1.00
296;DHT22;132;48.770;9.200;2023-01-15T07:40:03;6.60;1.00
296;DHT22;132;48.770;9.200;2023-01-15T07:42:29;6.60;1.00
296;DHT22;132;48.770;9.200;2023-01-15T07:45:14;6.50;1.00
296;DHT22;132;48.770;9.200;2023-01-15T07:47:59;6.60;1.00
296;DHT22;132;48.770;9.200;2023-01-15T07:53:11;6.50;1.00
296;DHT22;132;48.770;9.200;2023-01-15T07:55:38;6.40;1.00
296;DHT22;132;48.770;9.200;2023-01-15T07:58:04;6.40;1.00
296;DHT22;132;48.770;9.200;2023-01-15T08:00:31;6.40;1.00
296;DHT22;132;48.770;9.200;2023-01-15T08:02:57;6.30;1.00
296;DHT22;132;48.770;9.200;2023-01-15T08:07:50;7.30;1.00
296;DHT22;132;48.770;9.200;2023-01-15T08:10:17;6.30;1.00
296;DHT22;132;48.770;9.200;2023-01-15T08:12:44;6.40;1.00
296;DHT22;132;48.770;9.200;2023-01-15T08:15:32;6.40;1.00
296;DHT22;132;48.770;9.200;2023-01-15T08:17:59;6.40;1.00
296;DHT22;132;48.770;9.200;2023-01-15T08:20:26;6.50;1.00
296;DHT22;132;48.770;9.200;2023-01-15T08:22:52;6.50;1.00
296;DHT22;132;48.770;9.200;2023-01-15T08:25:22;6.50;1.00
296;DHT22;132;48.770;9.200;2023-01-15T08:27:50;6.50;1.00
296;DHT22;132;48.770;9.200;2023-01-15T08:30:19;6.60;1.00
296;DHT22;132;48.770;9.200;2023-01-15T08:32:46;6.60;1.00
296;DHT22;132;48.770;9.200;2023-01-15T08:35:12;6.50;1.00
296;DHT22;132;48.770;9.200;2023-01-15T08:37:41;6.50;1.00
296;DHT22;132;48.770;9.200;2023-01-15T08:40:11;6.80;1.00
296;DHT22;132;48.770;9.200;2023-01-15T08:42:38;6.50;1.00
296;DHT22;132;48.770;9.200;2023-01-15T08:45:04;6.60;1.00
296;DHT22;132;48.770;9.200;2023-01-15T08:47:31;7.00;1.00
296;DHT22;132;48.770;9.200;2023-01-15T08:49:57;6.50;1.00
296;DHT22;132;48.770;9.200;2023-01-15T08:52:24;6.60;1.00
296;DHT22;132;48.770;9.200;2023-01-15T08:57:17;6.60;1.00
296;DHT22;132;48.770;9.200;2023-01-15T08:59:44;6.70;1.00
296;DHT22;132;48.770;9.200;2023-01-15T09:02:13;8.30;1.00
296;DHT22;132;48.770;9.200;2023-01-15T09:04:40;6.60;1.00
296;DHT22;132;48.770;9.200;2023-01-15T09:07:06;6.70;1.00
296;DHT22;132;48.770;9.200;2023-01-15T09:09:33;6.70;1.00
296;DHT22;132;48.770;9.200;2023-01-15T09:12:00;6.80;1.00
296;DHT22;132;48.770;9.200;2023-01-15T09:14:26;6.80;1.00
296;DHT22;132;48.770;9.200;2023-01-15T09:16:53;6.90;1.00
296;DHT22;132;48.770;9.200;2023-01-15T09:19:20;6.90;1.00
296;DHT22;132;48.770;9.200;2023-01-15T09:21:46;7.00;1.00
296;DHT22;132;48.770;9.200;2023-01-15T09:24:12;6.90;1.00
296;DHT22;132;48.770;9.200;2023-01-15T09:26:39;6.80;1.00
296;DHT22;132;48.770;9.200;2023-01-15T09:29:06;6.90;1.00
296;DHT22;132;48.770;9.200;2023-01-15T09:31:34;6.90;1.00
296;DHT22;132;48.770;9.200;2023-01-15T09:34:00;6.90;1.00
296;DHT22;132;48.770;9.200;2023-01-15T09:36:32;6.70;1.00
296;DHT22;132;48.770;9.200;2023-01-15T09:39:00;7.10;1.00
296;DHT22;132;48.770;9.200;2023-01-15T09:47:38;7.00;1.00
296;DHT22;132;48.770;9.200;2023-01-15T09:51:11;7.10;1.00
296;DHT22;132;48.770;9.200;2023-01-15T09:56:01;7.20;1.00
296;DHT22;132;48.770;9.200;2023-01-15T09:58:36;7.10;1.00
296;DHT22;132;48.770;9.200;2023-01-15T10:01:04;7.10;1.00
296;DHT22;132;48.770;9.200;2023-01-15T10:03:42;7.10;1.00
296;DHT22;132;48.770;9.200;2023-01-15T10:06:27;7.00;1.00
296;DHT22;132;48.770;9.200;2023-01-15T10:09:03;8.10;1.00
296;DHT22;132;48.770;9.200;2023-01-15T10:11:44;6.90;1.00
296;DHT22;132;48.770;9.200;2023-01-15T10:14:46;6.70;1.00
296;DHT22;132;48.770;9.200;2023-01-15T10:17:27;6.80;1.00
296;DHT22;132;48.770;9.200;2023-01-15T10:19:55;7.00;1.00
296;DHT22;132;48.770;9.200;2023-01-15T10:24:55;6.70;1.00
296;DHT22;132;48.770;9.200;2023-01-15T10:27:24;8.10;1.00
296;DHT22;132;48.770;9.200;2023-01-15T10:29:56;6.50;1.00
296;DHT22;132;48.770;9.200;2023-01-15T10:32:43;6.60;1.00
296;DHT22;132;48.770;9.200;2023-01-15T10:38:05;6.60;1.00
296;DHT22;132;48.770;9.200;2023-01-15T10:46:16;6.70;1.00
296;DHT22;132;48.770;9.200;2023-01-15T10:49:11;6.50;1.00
296;DHT22;132;48.770;9.200;2023-01-15T10:51:51;6.50;1.00
296;DHT22;132;48.770;9.200;2023-01-15T10:57:02;6.20;1.00
296;DHT22;132;48.770;9.200;2023-01-15T10:59:42;6.30;1.00
296;DHT22;132;48.770;9.200;2023-01-15T11:02:42;5.80;1.00
296;DHT22;132;48.770;9.200;2023-01-15T11:07:44;5.00;1.00
296;DHT22;132;48.770;9.200;2023-01-15T11:10:14;5.90;1.00
296;DHT22;132;48.770;9.200;2023-01-15T11:13:07;5.80;1.00
296;DHT22;132;48.770;9.200;2023-01-15T11:15:56;5.70;1.00
296;DHT22;132;48.770;9.200;2023-01-15T11:18:42;5.70;1.00
296;DHT22;132;48.770;9.200;2023-01-15T11:21:29;5.40;1.00
296;DHT22;132;48.770;9.200;2023-01-15T11:23:57;5.40;1.00
296;DHT22;132;48.770;9.200;2023-01-15T11:26:28;5.50;1.00
296;DHT22;132;48.770;9.200;2023-01-15T11:28:57;5.50;1.00
296;DHT22;132;48.770;9.200;2023-01-15T11:31:35;5.30;1.00
296;DHT22;132;48.770;9.200;2023-01-15T11:34:05;5.30;1.00
296;DHT22;132;48.770;9.200;2023-01-15T11:36:32;5.20;1.00
296;DHT22;132;48.770;9.200;2023-01-15T11:38:59;5.20;1.00
296;DHT22;132;48.770;9.200;2023-01-15T11:44:12;5.60;1.00
296;DHT22;132;48.770;9.200;2023-01-15T11:46:59;5.30;1.00
296;DHT22;132;48.770;9.200;2023-01-15T11:49:51;5.20;1.00
296;DHT22;132;48.770;9.200;2023-01-15T11:52:47;5.10;1.00
296;DHT22;132;48.770;9.200;2023-01-15T11:57:47;5.30;1.00
296;DHT22;132;48.770;9.200;2023-01-15T12:00:29;5.30;1.00
296;DHT22;132;48.770;9.200;2023-01-15T12:03:01;5.40;1.00
296;DHT22;132;48.770;9.200;2023-01-15T12:05:33;5.10;1.00
296;DHT22;132;48.770;9.200;2023-01-15T12:08:27;5.30;1.00
296;DHT22;132;48.770;9.200;2023-01-15T12:11:00;5.30;1.00
296;DHT22;132;48.770;9.200;2023-01-15T12:30:16;5.10;1.00
296;DHT22;132;48.770;9.200;2023-01-15T12:32:51;5.30;1.00
296;DHT22;132;48.770;9.200;2023-01-15T12:38:11;5.20;1.00
296;DHT22;132;48.770;9.200;2023-01-15T12:41:01;5.10;1.00
296;DHT22;132;48.770;9.200;2023-01-15T12:43:29;5.30;1.00
296;DHT22;132;48.770;9.200;2023-01-15T12:46:26;5.10;1.00
296;DHT22;132;48.770;9.200;2023-01-15T12:51:47;5.20;1.00
296;DHT22;132;48.770;9.200;2023-01-15T12:54:18;5.50;1.00
296;DHT22;132;48.770;9.200;2023-01-15T12:57:12;5.10;1.00
296;DHT22;132;48.770;9.200;2023-01-15T12:59:46;5.20;1.00
296;DHT22;132;48.770;9.200;2023-01-15T13:02:27;5.00;1.00
296;DHT22;132;48.770;9.200;2023-01-15T13:06:00;5.10;1.00
296;DHT22;132;48.770;9.200;2023-01-15T13:08:26;5.30;1.00
296;DHT22;132;48.770;9.200;2023-01-15T13:10:55;5.30;1.00
296;DHT22;132;48.770;9.200;2023-01-15T13:13:24;5.50;1.00
296;DHT22;132;48.770;9.200;2023-01-15T13:18:44;5.40;1.00
296;DHT22;132;48.770;9.200;2023-01-15T13:21:15;5.50;1.00
296;DHT22;132;48.770;9.200;2023-01-15T13:34:47;5.70;1.00
296;DHT22;132;48.770;9.200;2023-01-15T13:37:45;5.60;1.00
296;DHT22;132;48.770;9.200;2023-01-15T13:42:48;5.80;1.00
296;DHT22;132;48.770;9.200;2023-01-15T13:47:47;5.80;1.00
296;DHT22;132;48.770;9.200;2023-01-15T13:50:17;6.70;1.00
296;DHT22;132;48.770;9.200;2023-01-15T13:52:45;5.40;1.00
296;DHT22;132;48.770;9.200;2023-01-15T13:57:41;5.40;1.00
296;DHT22;132;48.770;9.200;2023-01-15T14:00:30;5.20;1.00
296;DHT22;132;48.770;9.200;2023-01-15T14:03:02;5.40;1.00
296;DHT22;132;48.770;9.200;2023-01-15T14:05:31;5.30;1.00
296;DHT22;132;48.770;9.200;2023-01-15T14:07:59;5.60;1.00
296;DHT22;132;48.770;9.200;2023-01-15T14:32:13;5.50;1.00
296;DHT22;132;48.770;9.200;2023-01-15T14:34:42;5.50;1.00
296;DHT22;132;48.770;9.200;2023-01-15T14:39:48;5.50;1.00
296;DHT22;132;48.770;9.200;2023-01-15T14:42:29;5.60;1.00
296;DHT22;132;48.770;9.200;2023-01-15T14:45:30;5.50;1.00
296;DHT22;132;48.770;9.200;2023-01-15T14:48:03;5.50;1.00
296;DHT22;132;48.770;9.200;2023-01-15T14:50:37;5.40;1.00
296;DHT22;132;48.770;9.200;2023-01-15T14:55:55;5.40;1.00
296;DHT22;132;48.770;9.200;2023-01-15T15:01:33;5.40;1.00
296;DHT22;132;48.770;9.200;2023-01-15T15:06:28;5.40;1.00
296;DHT22;132;48.770;9.200;2023-01-15T15:08:59;5.20;1.00
296;DHT22;132;48.770;9.200;2023-01-15T15:11:41;5.30;1.00
296;DHT22;132;48.770;9.200;2023-01-15T15:14:27;5.40;1.00
296;DHT22;132;48.770;9.200;2023-01-15T15:16:59;5.40;1.00
296;DHT22;132;48.770;9.200;2023-01-15T15:19:41;5.50;1.00
296;DHT22;132;48.770;9.200;2023-01-15T15:22:14;5.40;1.00
296;DHT22;132;48.770;9.200;2023-01-15T15:24:49;5.20;1.00
296;DHT22;132;48.770;9.200;2023-01-15T15:27:20;5.40;1.00
296;DHT22;132;48.770;9.200;2023-01-15T15:29:48;5.10;1.00
296;DHT22;132;48.770;9.200;2023-01-15T15:32:17;5.30;1.00
296;DHT22;132;48.770;9.200;2023-01-15T15:37:19;5.20;1.00
296;DHT22;132;48.770;9.200;2023-01-15T15:40:02;5.20;1.00
296;DHT22;132;48.770;9.200;2023-01-15T15:42:36;5.30;1.00
296;DHT22;132;48.770;9.200;2023-01-15T15:48:32;6.40;1.00
296;DHT22;132;48.770;9.200;2023-01-15T15:51:31;5.20;1.00
296;DHT22;132;48.770;9.200;2023-01-15T15:57:03;5.20;1.00
296;DHT22;132;48.770;9.200;2023-01-15T15:59:37;5.60;1.00
296;DHT22;132;48.770;9.200;2023-01-15T16:02:35;5.30;1.00
296;DHT22;132;48.770;9.200;2023-01-15T16:05:26;5.00;1.00
296;DHT22;132;48.770;9.200;2023-01-15T16:08:16;5.00;1.00
296;DHT22;132;48.770;9.200;2023-01-15T16:10:46;4.90;1.00
296;DHT22;132;48.770;9.200;2023-01-15T16:13:25;6.10;1.00
296;DHT22;132;48.770;9.200;2023-01-15T16:15:52;5.10;1.00
296;DHT22;132;48.770;9.200;2023-01-15T16:18:39;4.90;1.00
296;DHT22;132;48.770;9.200;2023-01-15T16:21:30;4.90;1.00
296;DHT22;132;48.770;9.200;2023-01-15T16:24:03;4.70;1.00
296;DHT22;132;48.770;9.200;2023-01-15T16:26:34;4.60;1.00
296;DHT22;132;48.770;9.200;2023-01-15T16:29:04;6.90;1.00
296;DHT22;132;48.770;9.200;2023-01-15T16:31:35;5.50;1.00
296;DHT22;132;48.770;9.200;2023-01-15T16:34:03;4.70;1.00
296;DHT22;132;48.770;9.200;2023-01-15T16:41:51;4.30;1.00
296;DHT22;132;48.770;9.200;2023-01-15T16:44:49;4.40;1.00
296;DHT22;132;48.770;9.200;2023-01-15T16:47:22;4.70;1.00
296;DHT22;132;48.770;9.200;2023-01-15T16:49:49;5.20;1.00
296;DHT22;132;48.770;9.200;2023-01-15T16:57:31;4.50;1.00
296;DHT22;132;48.770;9.200;2023-01-15T17:00:01;4.20;1.00
296;DHT22;132;48.770;9.200;2023-01-15T17:02:41;4.40;1.00
296;DHT22;132;48.770;9.200;2023-01-15T17:05:18;4.50;1.00
296;DHT22;132;48.770;9.200;2023-01-15T17:07:47;4.40;1.00
296;DHT22;132;48.770;9.200;2023-01-15T17:10:23;4.30;1.00
296;DHT22;132;48.770;9.200;2023-01-15T17:12:50;4.50;1.00
296;DHT22;132;48.770;9.200;2023-01-15T17:17:51;4.30;1.00
296;DHT22;132;48.770;9.200;2023-01-15T17:20:19;4.80;1.00
296;DHT22;132;48.770;9.200;2023-01-15T17:22:47;5.80;1.00
296;DHT22;132;48.770;9.200;2023-01-15T17:25:27;5.90;1.00
296;DHT22;132;48.770;9.200;2023-01-15T17:27:57;4.30;1.00
296;DHT22;132;48.770;9.200;2023-01-15T17:30:25;4.10;1.00
296;DHT22;132;48.770;9.200;2023-01-15T17:33:01;4.10;1.00
296;DHT22;132;48.770;9.200;2023-01-15T17:35:36;4.60;1.00
296;DHT22;132;48.770;9.200;2023-01-15T17:38:03;4.10;1.00
296;DHT22;132;48.770;9.200;2023-01-15T17:40:30;4.10;1.00
296;DHT22;132;48.770;9.200;2023-01-15T17:45:29;4.20;1.00
296;DHT22;132;48.770;9.200;2023-01-15T17:50:23;4.50;1.00
296;DHT22;132;48.770;9.200;2023-01-15T17:52:51;5.90;1.00
296;DHT22;132;48.770;9.200;2023-01-15T17:58:27;3.90;1.00
296;DHT22;132;48.770;9.200;2023-01-15T18:01:20;3.90;1.00
296;DHT22;132;48.770;9.200;2023-01-15T18:04:14;4.10;1.00
296;DHT22;132;48.770;9.200;2023-01-15T18:07:00;4.10;1.00
296;DHT22;132;48.770;9.200;2023-01-15T18:09:27;4.00;1.00
296;DHT22;132;48.770;9.200;2023-01-15T18:11:54;4.00;1.00
296;DHT22;132;48.770;9.200;2023-01-15T18:14:20;3.90;1.00
296;DHT22;132;48.770;9.200;2023-01-15T18:16:46;4.20;1.00
296;DHT22;132;48.770;9.200;2023-01-15T18:19:13;2.40;1.00
296;DHT22;132;48.770;9.200;2023-01-15T18:21:39;4.00;1.00
296;DHT22;132;48.770;9.200;2023-01-15T18:24:11;3.90;1.00
296;DHT22;132;48.770;9.200;2023-01-15T18:26:40;3.90;1.00
296;DHT22;132;48.770;9.200;2023-01-15T18:29:08;3.80;1.00
296;DHT22;132;48.770;9.200;2023-01-15T18:31:36;4.00;1.00
296;DHT22;132;48.770;9.200;2023-01-15T18:34:03;4.00;1.00
296;DHT22;132;48.770;9.200;2023-01-15T18:36:31;3.90;1.00
296;DHT22;132;48.770;9.200;2023-01-15T18:38:57;4.00;1.00
296;DHT22;132;48.770;9.200;2023-01-15T18:41:32;3.90;1.00
296;DHT22;132;48.770;9.200;2023-01-15T18:46:56;4.10;1.00
296;DHT22;132;48.770;9.200;2023-01-15T18:49:22;4.00;1.00
296;DHT22;132;48.770;9.200;2023-01-15T18:51:48;4.10;1.00
296;DHT22;132;48.770;9.200;2023-01-15T18:54:34;4.10;1.00
296;DHT22;132;48.770;9.200;2023-01-15T19:01:55;4.20;1.00
296;DHT22;132;48.770;9.200;2023-01-15T19:04:22;4.10;1.00
296;DHT22;132;48.770;9.200;2023-01-15T19:06:48;3.80;1.00
296;DHT22;132;48.770;9.200;2023-01-15T19:09:15;4.10;1.00
296;DHT22;132;48.770;9.200;2023-01-15T19:11:42;4.20;1.00
296;DHT22;132;48.770;9.200;2023-01-15T19:16:55;4.20;1.00
296;DHT22;132;48.770;9.200;2023-01-15T19:19:40;4.10;1.00
296;DHT22;132;48.770;9.200;2023-01-15T19:22:09;4.30;1.00
296;DHT22;132;48.770;9.200;2023-01-15T19:24:54;4.30;1.00
296;DHT22;132;48.770;9.200;2023-01-15T19:27:20;4.20;1.00
296;DHT22;132;48.770;9.200;2023-01-15T19:29:47;4.20;1.00
296;DHT22;132;48.770;9.200;2023-01-15T19:32:13;4.20;1.00
296;DHT22;132;48.770;9.200;2023-01-15T19:34:40;4.20;1.00
296;DHT22;132;48.770;9.200;2023-01-15T19:37:06;4.50;1.00
296;DHT22;132;48.770;9.200;2023-01-15T19:39:32;4.10;1.00
296;DHT22;132;48.770;9.200;2023-01-15T19:44:44;5.20;1.00
296;DHT22;132;48.770;9.200;2023-01-15T19:47:35;4.20;1.00
296;DHT22;132;48.770;9.200;2023-01-15T19:50:33;4.10;1.00
296;DHT22;132;48.770;9.200;2023-01-15T19:53:00;4.20;1.00
296;DHT22;132;48.770;9.200;2023-01-15T19:55:28;4.00;1.00
296;DHT22;132;48.770;9.200;2023-01-15T19:58:00;4.10;1.00
296;DHT22;132;48.770;9.200;2023-01-15T20:00:28;4.10;1.00
296;DHT22;132;48.770;9.200;2023-01-15T20:02:56;3.50;1.00
296;DHT22;132;48.770;9.200;2023-01-15T20:05:25;4.10;1.00
296;DHT22;132;48.770;9.200;2023-01-15T20:07:51;4.10;1.00
296;DHT22;132;48.770;9.200;2023-01-15T20:10:20;4.00;1.00
296;DHT22;132;48.770;9.200;2023-01-15T20:12:47;4.10;1.00
296;DHT22;132;48.770;9.200;2023-01-15T20:15:32;4.10;1.00
296;DHT22;132;48.770;9.200;2023-01-15T20:18:00;4.80;1.00
296;DHT22;132;48.770;9.200;2023-01-15T20:20:27;4.20;1.00
296;DHT22;132;48.770;9.200;2023-01-15T20:22:53;4.20;1.00
296;DHT22;132;48.770;9.200;2023-01-15T20:25:23;4.10;1.00
296;DHT22;132;48.770;9.200;2023-01-15T20:27:53;4.30;1.00
296;DHT22;132;48.770;9.200;2023-01-15T20:30:21;4.10;1.00
296;DHT22;132;48.770;9.200;2023-01-15T20:32:50;4.10;1.00
296;DHT22;132;48.770;9.200;2023-01-15T20:35:20;3.90;1.00
296;DHT22;132;48.770;9.200;2023-01-15T20:37:48;4.20;1.00
296;DHT22;132;48.770;9.200;2023-01-15T20:40:17;4.00;1.00
296;DHT22;132;48.770;9.200;2023-01-15T20:45:31;4.00;1.00
296;DHT22;132;48.770;9.200;2023-01-15T20:47:57;4.10;1.00
296;DHT22;132;48.770;9.200;2023-01-15T20:50:44;4.00;1.00
296;DHT22;132;48.770;9.200;2023-01-15T20:56:02;4.00;1.00
296;DHT22;132;48.770;9.200;2023-01-15T20:58:31;4.10;1.00
296;DHT22;132;48.770;9.200;2023-01-15T21:01:02;3.80;1.00
296;DHT22;132;48.770;9.200;2023-01-15T21:03:28;3.80;1.00
296;DHT22;132;48.770;9.200;2023-01-15T21:08:23;3.70;1.00
296;DHT22;132;48.770;9.200;2023-01-15T21:10:53;3.70;1.00
296;DHT22;132;48.770;9.200;2023-01-15T21:13:21;3.70;1.00
296;DHT22;132;48.770;9.200;2023-01-15T21:15:56;3.60;1.00
296;DHT22;132;48.770;9.200;2023-01-15T21:18:27;3.60;1.00
296;DHT22;132;48.770;9.200;2023-01-15T21:20:55;3.60;1.00
296;DHT22;132;48.770;9.200;2023-01-15T21:23:22;1.90;1.00
296;DHT22;132;48.770;9.200;2023-01-15T21:25:50;3.70;1.00
296;DHT22;132;48.770;9.200;2023-01-15T21:28:19;3.50;1.00
296;DHT22;132;48.770;9.200;2023-01-15T21:30:45;3.50;1.00
296;DHT22;132;48.770;9.200;2023-01-15T21:33:12;3.50;1.00
296;DHT22;132;48.770;9.200;2023-01-15T21:35:40;3.50;1.00
296;DHT22;132;48.770;9.200;2023-01-15T21:38:07;2.00;1.00